sensor_id;sensor_type;location;lat;lon;timestamp;temperature;humidity
22633;DHT22;11483;55.828;37.488;2022-10-16T00:00:35;7.10;99.90
22633;DHT22;11483;55.828;37.488;2022-10-16T00:03:02;7.10;99.90
22633;DHT22;11483;55.828;37.488;2022-10-16T00:05:28;7.10;99.90
22633;DHT22;11483;55.828;37.488;2022-10-16T00:07:54;7.00;99.90
22633;DHT22;11483;55.828;37.488;2022-10-16T00:10:20;7.00;99.90
22633;DHT22;11483;55.828;37.488;2022-10-16T00:12:46;7.00;99.90
22633;DHT22;11483;55.828;37.488;2022-10-16T00:15:12;6.90;99.90
22633;DHT22;11483;55.828;37.488;2022-10-16T00:17:38;7.00;99.90
22633;DHT22;11483;55.828;37.488;2022-10-16T00:20:05;7.00;99.90
22633;DHT22;11483;55.828;37.488;2022-10-16T00:22:49;6.90;99.90
22633;DHT22;11483;55.828;37.488;2022-10-16T00:25:15;6.90;99.90
22633;DHT22;11483;55.828;37.488;2022-10-16T00:27:41;6.90;99.90
22633;DHT22;11483;55.828;37.488;2022-10-16T00:30:07;6.80;99.90
22633;DHT22;11483;55.828;37.488;2022-10-16T00:32:33;6.80;99.90
22633;DHT22;11483;55.828;37.488;2022-10-16T00:34:59;6.70;99.90
22633;DHT22;11483;55.828;37.488;2022-10-16T00:37:25;6.70;99.90
22633;DHT22;11483;55.828;37.488;2022-10-16T00:39:51;6.70;99.90
22633;DHT22;11483;55.828;37.488;2022-10-16T00:42:18;6.70;99.90
22633;DHT22;11483;55.828;37.488;2022-10-16T00:44:55;6.70;99.90
22633;DHT22;11483;55.828;37.488;2022-10-16T00:47:37;6.70;99.90
22633;DHT22;11483;55.828;37.488;2022-10-16T00:52:40;6.60;99.90
22633;DHT22;11483;55.828;37.488;2022-10-16T00:55:09;6.60;99.90
22633;DHT22;11483;55.828;37.488;2022-10-16T00:57:35;6.60;99.90
22633;DHT22;11483;55.828;37.488;2022-10-16T01:00:05;6.50;99.90
22633;DHT22;11483;55.828;37.488;2022-10-16T01:02:31;6.50;99.90
22633;DHT22;11483;55.828;37.488;2022-10-16T01:04:57;6.50;99.90
22633;DHT22;11483;55.828;37.488;2022-10-16T01:10:40;6.50;99.90
22633;DHT22;11483;55.828;37.488;2022-10-16T01:13:27;6.50;99.90
22633;DHT22;11483;55.828;37.488;2022-10-16T01:18:54;6.40;99.90
22633;DHT22;11483;55.828;37.488;2022-10-16T01:21:26;6.50;99.90
22633;DHT22;11483;55.828;37.488;2022-10-16T01:24:11;6.40;99.90
22633;DHT22;11483;55.828;37.488;2022-10-16T01:29:33;6.30;99.90
22633;DHT22;11483;55.828;37.488;2022-10-16T01:32:07;6.30;99.90
22633;DHT22;11483;55.828;37.488;2022-10-16T01:34:42;6.30;99.90
22633;DHT22;11483;55.828;37.488;2022-10-16T01:37:22;6.30;99.90
22633;DHT22;11483;55.828;37.488;2022-10-16T01:39:49;6.40;99.90
22633;DHT22;11483;55.828;37.488;2022-10-16T01:42:24;6.30;99.90
22633;DHT22;11483;55.828;37.488;2022-10-16T01:44:56;6.30;99.90
22633;DHT22;11483;55.828;37.488;2022-10-16T01:47:25;6.40;99.90
22633;DHT22;11483;55.828;37.488;2022-10-16T01:49:53;6.30;99.90
22633;DHT22;11483;55.828;37.488;2022-10-16T01:52:23;6.30;99.90
22633;DHT22;11483;55.828;37.488;2022-10-16T01:54:53;6.30;99.90
22633;DHT22;11483;55.828;37.488;2022-10-16T01:57:21;6.30;99.90
22633;DHT22;11483;55.828;37.488;2022-10-16T01:59:52;6.30;99.90
22633;DHT22;11483;55.828;37.488;2022-10-16T02:02:21;6.30;99.90
22633;DHT22;11483;55.828;37.488;2022-10-16T02:05:10;6.30;99.90
22633;DHT22;11483;55.828;37.488;2022-10-16T02:07:37;6.30;99.90
22633;DHT22;11483;55.828;37.488;2022-10-16T02:10:03;6.20;99.90
22633;DHT22;11483;55.828;37.488;2022-10-16T02:12:34;6.30;99.90
22633;DHT22;11483;55.828;37.488;2022-10-16T02:15:02;6.30;99.90
22633;DHT22;11483;55.828;37.488;2022-10-16T02:17:28;6.30;99.90
22633;DHT22;11483;55.828;37.488;2022-10-16T02:19:55;6.20;99.90
22633;DHT22;11483;55.828;37.488;2022-10-16T02:22:42;6.20;99.90
22633;DHT22;11483;55.828;37.488;2022-10-16T02:25:17;6.20;99.90
22633;DHT22;11483;55.828;37.488;2022-10-16T02:30:36;6.20;99.90
22633;DHT22;11483;55.828;37.488;2022-10-16T02:33:06;6.10;99.90
22633;DHT22;11483;55.828;37.488;2022-10-16T02:35:32;6.10;99.90
22633;DHT22;11483;55.828;37.488;2022-10-16T02:37:59;6.10;99.90
22633;DHT22;11483;55.828;37.488;2022-10-16T02:40:25;6.10;99.90
22633;DHT22;11483;55.828;37.488;2022-10-16T02:42:53;6.00;99.90
22633;DHT22;11483;55.828;37.488;2022-10-16T02:45:20;6.00;99.90
22633;DHT22;11483;55.828;37.488;2022-10-16T02:47:46;5.90;99.90
22633;DHT22;11483;55.828;37.488;2022-10-16T02:50:12;5.90;99.90
22633;DHT22;11483;55.828;37.488;2022-10-16T02:52:38;5.90;99.90
22633;DHT22;11483;55.828;37.488;2022-10-16T02:55:04;5.90;99.90
22633;DHT22;11483;55.828;37.488;2022-10-16T02:57:30;5.80;99.90
22633;DHT22;11483;55.828;37.488;2022-10-16T02:59:57;5.80;99.90
22633;DHT22;11483;55.828;37.488;2022-10-16T03:02:23;5.70;99.90
22633;DHT22;11483;55.828;37.488;2022-10-16T03:04:49;5.70;99.90
22633;DHT22;11483;55.828;37.488;2022-10-16T03:07:15;5.60;99.90
22633;DHT22;11483;55.828;37.488;2022-10-16T03:09:41;5.60;99.90
22633;DHT22;11483;55.828;37.488;2022-10-16T03:12:07;5.60;99.90
22633;DHT22;11483;55.828;37.488;2022-10-16T03:14:33;5.50;99.90
22633;DHT22;11483;55.828;37.488;2022-10-16T03:16:59;5.60;99.90
22633;DHT22;11483;55.828;37.488;2022-10-16T03:19:25;5.60;99.90
22633;DHT22;11483;55.828;37.488;2022-10-16T03:21:50;5.50;99.90
22633;DHT22;11483;55.828;37.488;2022-10-16T03:24:16;5.50;99.90
22633;DHT22;11483;55.828;37.488;2022-10-16T03:26:42;5.40;99.90
22633;DHT22;11483;55.828;37.488;2022-10-16T03:29:08;5.40;99.90
22633;DHT22;11483;55.828;37.488;2022-10-16T03:31:33;5.40;99.90
22633;DHT22;11483;55.828;37.488;2022-10-16T03:33:59;5.40;99.90
22633;DHT22;11483;55.828;37.488;2022-10-16T03:36:25;5.40;99.90
22633;DHT22;11483;55.828;37.488;2022-10-16T03:38:51;5.30;99.90
22633;DHT22;11483;55.828;37.488;2022-10-16T03:41:17;5.30;99.90
22633;DHT22;11483;55.828;37.488;2022-10-16T03:43:43;5.30;99.90
22633;DHT22;11483;55.828;37.488;2022-10-16T03:46:08;5.20;99.90
22633;DHT22;11483;55.828;37.488;2022-10-16T03:48:34;5.20;99.90
22633;DHT22;11483;55.828;37.488;2022-10-16T03:51:00;5.20;99.90
22633;DHT22;11483;55.828;37.488;2022-10-16T03:53:26;5.20;99.90
22633;DHT22;11483;55.828;37.488;2022-10-16T03:55:52;5.20;99.90
22633;DHT22;11483;55.828;37.488;2022-10-16T03:58:17;5.10;99.90
22633;DHT22;11483;55.828;37.488;2022-10-16T04:00:45;5.10;99.90
22633;DHT22;11483;55.828;37.488;2022-10-16T04:03:13;5.10;99.90
22633;DHT22;11483;55.828;37.488;2022-10-16T04:05:39;5.10;99.90
22633;DHT22;11483;55.828;37.488;2022-10-16T04:08:05;5.00;99.90
22633;DHT22;11483;55.828;37.488;2022-10-16T04:10:31;5.10;99.90
22633;DHT22;11483;55.828;37.488;2022-10-16T04:12:57;5.00;99.90
22633;DHT22;11483;55.828;37.488;2022-10-16T04:15:24;5.00;99.90
22633;DHT22;11483;55.828;37.488;2022-10-16T04:17:50;5.00;99.90
22633;DHT22;11483;55.828;37.488;2022-10-16T04:20:16;5.00;99.90
22633;DHT22;11483;55.828;37.488;2022-10-16T04:22:42;5.00;99.90
22633;DHT22;11483;55.828;37.488;2022-10-16T04:25:08;5.00;99.90
22633;DHT22;11483;55.828;37.488;2022-10-16T04:27:34;5.00;99.90
22633;DHT22;11483;55.828;37.488;2022-10-16T04:30:00;5.00;99.90
22633;DHT22;11483;55.828;37.488;2022-10-16T04:32:27;5.00;99.90
22633;DHT22;11483;55.828;37.488;2022-10-16T04:34:53;5.10;99.90
22633;DHT22;11483;55.828;37.488;2022-10-16T04:37:23;5.10;99.90
22633;DHT22;11483;55.828;37.488;2022-10-16T04:39:49;5.10;99.90
22633;DHT22;11483;55.828;37.488;2022-10-16T04:42:15;5.10;99.90
22633;DHT22;11483;55.828;37.488;2022-10-16T04:44:41;5.10;99.90
22633;DHT22;11483;55.828;37.488;2022-10-16T04:47:07;5.10;99.90
22633;DHT22;11483;55.828;37.488;2022-10-16T04:49:33;5.20;99.90
22633;DHT22;11483;55.828;37.488;2022-10-16T04:51:59;5.20;99.90
22633;DHT22;11483;55.828;37.488;2022-10-16T04:54:25;5.20;99.90
22633;DHT22;11483;55.828;37.488;2022-10-16T04:56:51;5.30;99.90
22633;DHT22;11483;55.828;37.488;2022-10-16T04:59:18;5.30;99.90
22633;DHT22;11483;55.828;37.488;2022-10-16T05:01:44;5.40;99.90
22633;DHT22;11483;55.828;37.488;2022-10-16T05:04:11;5.50;99.90
22633;DHT22;11483;55.828;37.488;2022-10-16T05:06:37;5.50;99.90
22633;DHT22;11483;55.828;37.488;2022-10-16T05:09:05;5.50;99.90
22633;DHT22;11483;55.828;37.488;2022-10-16T05:11:31;5.50;99.90
22633;DHT22;11483;55.828;37.488;2022-10-16T05:13:57;5.50;99.90
22633;DHT22;11483;55.828;37.488;2022-10-16T05:16:23;5.60;99.90
22633;DHT22;11483;55.828;37.488;2022-10-16T05:18:48;5.60;99.90
22633;DHT22;11483;55.828;37.488;2022-10-16T05:21:14;5.60;99.90
22633;DHT22;11483;55.828;37.488;2022-10-16T05:23:40;5.60;99.90
22633;DHT22;11483;55.828;37.488;2022-10-16T05:26:06;5.60;99.90
22633;DHT22;11483;55.828;37.488;2022-10-16T05:28:32;5.60;99.90
22633;DHT22;11483;55.828;37.488;2022-10-16T05:30:58;5.70;99.90
22633;DHT22;11483;55.828;37.488;2022-10-16T05:33:25;5.70;99.90
22633;DHT22;11483;55.828;37.488;2022-10-16T05:35:52;5.80;99.90
22633;DHT22;11483;55.828;37.488;2022-10-16T05:38:18;5.80;99.90
22633;DHT22;11483;55.828;37.488;2022-10-16T05:40:50;5.80;99.90
22633;DHT22;11483;55.828;37.488;2022-10-16T05:43:16;5.80;99.90
22633;DHT22;11483;55.828;37.488;2022-10-16T05:45:42;5.90;99.90
22633;DHT22;11483;55.828;37.488;2022-10-16T05:48:08;5.90;99.90
22633;DHT22;11483;55.828;37.488;2022-10-16T05:50:34;5.90;99.90
22633;DHT22;11483;55.828;37.488;2022-10-16T05:52:59;6.00;99.90
22633;DHT22;11483;55.828;37.488;2022-10-16T05:55:25;6.00;99.90
22633;DHT22;11483;55.828;37.488;2022-10-16T05:57:54;6.10;99.90
22633;DHT22;11483;55.828;37.488;2022-10-16T06:00:20;6.20;99.90
22633;DHT22;11483;55.828;37.488;2022-10-16T06:02:46;6.30;99.90
22633;DHT22;11483;55.828;37.488;2022-10-16T06:05:11;6.30;99.90
22633;DHT22;11483;55.828;37.488;2022-10-16T06:07:37;6.40;99.90
22633;DHT22;11483;55.828;37.488;2022-10-16T06:10:04;6.40;99.90
22633;DHT22;11483;55.828;37.488;2022-10-16T06:12:30;6.40;99.90
22633;DHT22;11483;55.828;37.488;2022-10-16T06:14:57;6.40;99.90
22633;DHT22;11483;55.828;37.488;2022-10-16T06:17:23;6.50;99.90
22633;DHT22;11483;55.828;37.488;2022-10-16T06:19:48;6.50;99.90
22633;DHT22;11483;55.828;37.488;2022-10-16T06:22:14;6.60;99.90
22633;DHT22;11483;55.828;37.488;2022-10-16T06:24:40;6.60;99.90
22633;DHT22;11483;55.828;37.488;2022-10-16T06:27:06;6.70;99.90
22633;DHT22;11483;55.828;37.488;2022-10-16T06:29:32;6.70;99.90
22633;DHT22;11483;55.828;37.488;2022-10-16T06:31:57;6.80;99.90
22633;DHT22;11483;55.828;37.488;2022-10-16T06:34:23;6.90;99.90
22633;DHT22;11483;55.828;37.488;2022-10-16T06:36:49;6.90;99.90
22633;DHT22;11483;55.828;37.488;2022-10-16T06:39:15;7.00;99.90
22633;DHT22;11483;55.828;37.488;2022-10-16T06:41:41;7.00;99.90
22633;DHT22;11483;55.828;37.488;2022-10-16T06:44:07;7.00;99.90
22633;DHT22;11483;55.828;37.488;2022-10-16T06:46:35;7.10;99.90
22633;DHT22;11483;55.828;37.488;2022-10-16T06:49:02;7.10;99.90
22633;DHT22;11483;55.828;37.488;2022-10-16T06:51:28;7.20;99.90
22633;DHT22;11483;55.828;37.488;2022-10-16T06:53:55;7.20;99.90
22633;DHT22;11483;55.828;37.488;2022-10-16T06:56:26;7.30;99.90
22633;DHT22;11483;55.828;37.488;2022-10-16T06:58:53;7.40;99.90
22633;DHT22;11483;55.828;37.488;2022-10-16T07:01:21;7.50;99.90
22633;DHT22;11483;55.828;37.488;2022-10-16T07:03:48;7.50;99.90
22633;DHT22;11483;55.828;37.488;2022-10-16T07:06:16;7.50;99.90
22633;DHT22;11483;55.828;37.488;2022-10-16T07:08:45;7.50;99.90
22633;DHT22;11483;55.828;37.488;2022-10-16T07:11:14;7.60;99.90
22633;DHT22;11483;55.828;37.488;2022-10-16T07:13:42;7.70;99.90
22633;DHT22;11483;55.828;37.488;2022-10-16T07:18:35;7.80;99.90
22633;DHT22;11483;55.828;37.488;2022-10-16T07:21:06;7.90;99.90
22633;DHT22;11483;55.828;37.488;2022-10-16T07:23:33;7.90;99.90
22633;DHT22;11483;55.828;37.488;2022-10-16T07:25:58;7.90;99.90
22633;DHT22;11483;55.828;37.488;2022-10-16T07:28:24;8.00;99.90
22633;DHT22;11483;55.828;37.488;2022-10-16T07:30:50;8.00;99.90
22633;DHT22;11483;55.828;37.488;2022-10-16T07:33:16;8.10;99.90
22633;DHT22;11483;55.828;37.488;2022-10-16T07:35:52;8.30;99.90
22633;DHT22;11483;55.828;37.488;2022-10-16T07:38:20;8.40;99.90
22633;DHT22;11483;55.828;37.488;2022-10-16T07:40:46;8.40;99.90
22633;DHT22;11483;55.828;37.488;2022-10-16T07:43:12;8.50;99.90
22633;DHT22;11483;55.828;37.488;2022-10-16T07:45:46;8.60;99.90
22633;DHT22;11483;55.828;37.488;2022-10-16T07:48:12;8.70;99.90
22633;DHT22;11483;55.828;37.488;2022-10-16T07:50:38;8.90;99.90
22633;DHT22;11483;55.828;37.488;2022-10-16T07:53:04;9.20;99.90
22633;DHT22;11483;55.828;37.488;2022-10-16T07:55:30;9.60;99.90
22633;DHT22;11483;55.828;37.488;2022-10-16T07:57:55;9.90;99.90
22633;DHT22;11483;55.828;37.488;2022-10-16T08:00:21;10.20;99.90
22633;DHT22;11483;55.828;37.488;2022-10-16T08:02:47;10.30;99.90
22633;DHT22;11483;55.828;37.488;2022-10-16T08:05:13;10.30;99.90
22633;DHT22;11483;55.828;37.488;2022-10-16T08:07:38;10.20;99.90
22633;DHT22;11483;55.828;37.488;2022-10-16T08:10:14;10.40;99.90
22633;DHT22;11483;55.828;37.488;2022-10-16T08:12:51;11.00;99.90
22633;DHT22;11483;55.828;37.488;2022-10-16T08:15:18;12.80;99.90
22633;DHT22;11483;55.828;37.488;2022-10-16T08:17:44;14.50;99.90
22633;DHT22;11483;55.828;37.488;2022-10-16T08:20:10;16.00;99.90
22633;DHT22;11483;55.828;37.488;2022-10-16T08:22:36;17.20;99.90
22633;DHT22;11483;55.828;37.488;2022-10-16T08:25:02;18.20;99.90
22633;DHT22;11483;55.828;37.488;2022-10-16T08:27:31;18.70;99.90
22633;DHT22;11483;55.828;37.488;2022-10-16T08:29:57;19.30;98.60
22633;DHT22;11483;55.828;37.488;2022-10-16T08:32:23;19.90;94.80
22633;DHT22;11483;55.828;37.488;2022-10-16T08:34:49;20.30;94.10
22633;DHT22;11483;55.828;37.488;2022-10-16T08:37:15;21.10;92.00
22633;DHT22;11483;55.828;37.488;2022-10-16T08:39:40;22.30;86.90
22633;DHT22;11483;55.828;37.488;2022-10-16T08:42:41;22.70;80.30
22633;DHT22;11483;55.828;37.488;2022-10-16T08:48:42;23.10;75.50
22633;DHT22;11483;55.828;37.488;2022-10-16T08:51:19;23.90;75.40
22633;DHT22;11483;55.828;37.488;2022-10-16T08:53:56;24.40;69.40
22633;DHT22;11483;55.828;37.488;2022-10-16T08:56:23;24.10;66.30
22633;DHT22;11483;55.828;37.488;2022-10-16T08:58:49;23.10;68.40
22633;DHT22;11483;55.828;37.488;2022-10-16T09:01:17;22.80;68.60
22633;DHT22;11483;55.828;37.488;2022-10-16T09:06:46;21.80;69.60
22633;DHT22;11483;55.828;37.488;2022-10-16T09:11:58;21.80;70.50
22633;DHT22;11483;55.828;37.488;2022-10-16T09:17:01;22.50;67.60
22633;DHT22;11483;55.828;37.488;2022-10-16T09:19:31;22.20;67.90
22633;DHT22;11483;55.828;37.488;2022-10-16T09:22:01;22.00;67.70
22633;DHT22;11483;55.828;37.488;2022-10-16T09:24:28;21.80;67.40
22633;DHT22;11483;55.828;37.488;2022-10-16T09:26:53;21.50;67.90
22633;DHT22;11483;55.828;37.488;2022-10-16T09:29:20;21.60;69.10
22633;DHT22;11483;55.828;37.488;2022-10-16T09:31:47;22.00;68.60
22633;DHT22;11483;55.828;37.488;2022-10-16T09:34:35;22.20;66.90
22633;DHT22;11483;55.828;37.488;2022-10-16T09:37:03;22.10;67.20
22633;DHT22;11483;55.828;37.488;2022-10-16T09:39:29;22.20;67.60
22633;DHT22;11483;55.828;37.488;2022-10-16T09:41:55;22.30;66.80
22633;DHT22;11483;55.828;37.488;2022-10-16T09:44:23;22.00;65.20
22633;DHT22;11483;55.828;37.488;2022-10-16T09:47:04;21.80;65.10
22633;DHT22;11483;55.828;37.488;2022-10-16T09:49:30;22.50;65.80
22633;DHT22;11483;55.828;37.488;2022-10-16T09:52:11;22.80;63.90
22633;DHT22;11483;55.828;37.488;2022-10-16T09:54:38;22.40;64.70
22633;DHT22;11483;55.828;37.488;2022-10-16T09:57:14;22.90;63.70
22633;DHT22;11483;55.828;37.488;2022-10-16T09:59:51;22.70;62.80
22633;DHT22;11483;55.828;37.488;2022-10-16T10:02:34;22.50;63.80
22633;DHT22;11483;55.828;37.488;2022-10-16T10:05:00;22.20;63.20
22633;DHT22;11483;55.828;37.488;2022-10-16T10:07:27;21.80;64.30
22633;DHT22;11483;55.828;37.488;2022-10-16T10:09:54;21.40;64.10
22633;DHT22;11483;55.828;37.488;2022-10-16T10:12:25;21.30;64.70
22633;DHT22;11483;55.828;37.488;2022-10-16T10:14:54;21.20;65.00
22633;DHT22;11483;55.828;37.488;2022-10-16T10:17:21;21.10;65.20
22633;DHT22;11483;55.828;37.488;2022-10-16T10:22:24;20.90;65.70
22633;DHT22;11483;55.828;37.488;2022-10-16T10:27:27;20.80;66.80
22633;DHT22;11483;55.828;37.488;2022-10-16T10:30:11;20.90;66.10
22633;DHT22;11483;55.828;37.488;2022-10-16T10:41:29;22.30;64.10
22633;DHT22;11483;55.828;37.488;2022-10-16T10:49:27;22.60;61.60
22633;DHT22;11483;55.828;37.488;2022-10-16T10:52:20;22.30;62.10
22633;DHT22;11483;55.828;37.488;2022-10-16T10:54:56;22.10;62.30
22633;DHT22;11483;55.828;37.488;2022-10-16T10:57:36;22.50;63.20
22633;DHT22;11483;55.828;37.488;2022-10-16T11:00:23;22.40;62.10
22633;DHT22;11483;55.828;37.488;2022-10-16T11:08:26;22.20;63.10
22633;DHT22;11483;55.828;37.488;2022-10-16T11:10:58;22.00;63.10
22633;DHT22;11483;55.828;37.488;2022-10-16T11:14:19;22.00;63.60
22633;DHT22;11483;55.828;37.488;2022-10-16T11:16:31;22.40;63.20
22633;DHT22;11483;55.828;37.488;2022-10-16T11:19:53;22.60;62.60
22633;DHT22;11483;55.828;37.488;2022-10-16T11:25:22;22.70;62.10
22633;DHT22;11483;55.828;37.488;2022-10-16T11:28:11;22.20;62.70
22633;DHT22;11483;55.828;37.488;2022-10-16T11:30:54;22.20;62.60
22633;DHT22;11483;55.828;37.488;2022-10-16T11:46:58;22.30;63.80
22633;DHT22;11483;55.828;37.488;2022-10-16T11:49:27;22.10;63.10
22633;DHT22;11483;55.828;37.488;2022-10-16T11:52:16;21.80;63.50
22633;DHT22;11483;55.828;37.488;2022-10-16T11:57:33;21.70;64.10
22633;DHT22;11483;55.828;37.488;2022-10-16T12:00:24;21.50;63.70
22633;DHT22;11483;55.828;37.488;2022-10-16T12:08:19;21.70;64.70
22633;DHT22;11483;55.828;37.488;2022-10-16T12:10:47;22.10;63.90
22633;DHT22;11483;55.828;37.488;2022-10-16T12:18:43;22.20;62.60
22633;DHT22;11483;55.828;37.488;2022-10-16T12:21:10;21.90;62.40
22633;DHT22;11483;55.828;37.488;2022-10-16T12:23:51;21.50;62.80
22633;DHT22;11483;55.828;37.488;2022-10-16T12:26:25;21.20;63.50
22633;DHT22;11483;55.828;37.488;2022-10-16T12:28:52;21.20;63.70
22633;DHT22;11483;55.828;37.488;2022-10-16T12:31:18;21.20;64.30
22633;DHT22;11483;55.828;37.488;2022-10-16T12:34:01;21.40;63.50
22633;DHT22;11483;55.828;37.488;2022-10-16T12:36:34;21.00;63.40
22633;DHT22;11483;55.828;37.488;2022-10-16T12:39:01;20.40;64.50
22633;DHT22;11483;55.828;37.488;2022-10-16T12:41:36;20.10;64.80
22633;DHT22;11483;55.828;37.488;2022-10-16T12:44:20;20.30;65.30
22633;DHT22;11483;55.828;37.488;2022-10-16T12:46:47;20.40;65.20
22633;DHT22;11483;55.828;37.488;2022-10-16T12:51:39;20.10;65.30
22633;DHT22;11483;55.828;37.488;2022-10-16T12:54:29;19.90;65.90
22633;DHT22;11483;55.828;37.488;2022-10-16T12:59:44;19.90;66.40
22633;DHT22;11483;55.828;37.488;2022-10-16T13:16:27;18.70;68.90
22633;DHT22;11483;55.828;37.488;2022-10-16T13:22:29;18.60;69.80
22633;DHT22;11483;55.828;37.488;2022-10-16T13:27:59;18.40;70.20
22633;DHT22;11483;55.828;37.488;2022-10-16T13:30:25;18.20;70.80
22633;DHT22;11483;55.828;37.488;2022-10-16T13:33:13;18.20;71.00
22633;DHT22;11483;55.828;37.488;2022-10-16T13:35:48;18.30;70.90
22633;DHT22;11483;55.828;37.488;2022-10-16T13:38:19;18.00;71.20
22633;DHT22;11483;55.828;37.488;2022-10-16T13:40:51;17.90;71.70
22633;DHT22;11483;55.828;37.488;2022-10-16T13:43:23;17.70;72.10
22633;DHT22;11483;55.828;37.488;2022-10-16T13:45:54;17.40;72.70
22633;DHT22;11483;55.828;37.488;2022-10-16T13:48:20;17.20;73.20
22633;DHT22;11483;55.828;37.488;2022-10-16T13:50:45;16.80;73.90
22633;DHT22;11483;55.828;37.488;2022-10-16T13:53:14;16.50;74.80
22633;DHT22;11483;55.828;37.488;2022-10-16T13:55:40;16.20;75.60
22633;DHT22;11483;55.828;37.488;2022-10-16T13:58:07;16.00;76.00
22633;DHT22;11483;55.828;37.488;2022-10-16T14:00:34;15.60;76.80
22633;DHT22;11483;55.828;37.488;2022-10-16T14:03:07;15.20;78.10
22633;DHT22;11483;55.828;37.488;2022-10-16T14:05:50;14.80;79.50
22633;DHT22;11483;55.828;37.488;2022-10-16T14:08:17;14.50;80.80
22633;DHT22;11483;55.828;37.488;2022-10-16T14:10:47;14.40;81.60
22633;DHT22;11483;55.828;37.488;2022-10-16T14:13:17;14.20;82.60
22633;DHT22;11483;55.828;37.488;2022-10-16T14:15:45;14.00;83.50
22633;DHT22;11483;55.828;37.488;2022-10-16T14:18:21;13.90;84.40
22633;DHT22;11483;55.828;37.488;2022-10-16T14:20:48;13.60;85.60
22633;DHT22;11483;55.828;37.488;2022-10-16T14:23:38;13.30;86.70
22633;DHT22;11483;55.828;37.488;2022-10-16T14:26:17;13.10;88.20
22633;DHT22;11483;55.828;37.488;2022-10-16T14:28:45;13.00;89.60
22633;DHT22;11483;55.828;37.488;2022-10-16T14:31:31;12.70;90.70
22633;DHT22;11483;55.828;37.488;2022-10-16T14:33:58;12.60;91.20
22633;DHT22;11483;55.828;37.488;2022-10-16T14:36:27;12.60;91.90
22633;DHT22;11483;55.828;37.488;2022-10-16T14:39:17;12.50;92.10
22633;DHT22;11483;55.828;37.488;2022-10-16T14:41:45;12.40;92.50
22633;DHT22;11483;55.828;37.488;2022-10-16T14:44:12;12.30;93.00
22633;DHT22;11483;55.828;37.488;2022-10-16T14:46:41;12.20;93.40
22633;DHT22;11483;55.828;37.488;2022-10-16T14:51:38;12.10;94.40
22633;DHT22;11483;55.828;37.488;2022-10-16T14:54:08;12.10;94.60
22633;DHT22;11483;55.828;37.488;2022-10-16T14:56:56;11.90;95.30
22633;DHT22;11483;55.828;37.488;2022-10-16T15:01:57;11.80;96.30
22633;DHT22;11483;55.828;37.488;2022-10-16T15:04:23;11.80;96.70
22633;DHT22;11483;55.828;37.488;2022-10-16T15:06:49;11.80;97.00
22633;DHT22;11483;55.828;37.488;2022-10-16T15:09:15;11.80;97.30
22633;DHT22;11483;55.828;37.488;2022-10-16T15:11:42;11.80;97.70
22633;DHT22;11483;55.828;37.488;2022-10-16T15:14:12;11.70;98.00
22633;DHT22;11483;55.828;37.488;2022-10-16T15:16:39;11.70;98.60
22633;DHT22;11483;55.828;37.488;2022-10-16T15:19:04;11.70;98.90
22633;DHT22;11483;55.828;37.488;2022-10-16T15:21:32;11.60;99.20
22633;DHT22;11483;55.828;37.488;2022-10-16T15:23:59;11.60;99.60
22633;DHT22;11483;55.828;37.488;2022-10-16T15:26:27;11.50;99.90
22633;DHT22;11483;55.828;37.488;2022-10-16T15:28:54;11.50;99.90
22633;DHT22;11483;55.828;37.488;2022-10-16T15:31:20;11.50;99.90
22633;DHT22;11483;55.828;37.488;2022-10-16T15:33:51;11.40;99.90
22633;DHT22;11483;55.828;37.488;2022-10-16T15:36:30;11.40;99.90
22633;DHT22;11483;55.828;37.488;2022-10-16T15:39:32;11.40;99.90
22633;DHT22;11483;55.828;37.488;2022-10-16T15:41:51;11.30;99.90
22633;DHT22;11483;55.828;37.488;2022-10-16T15:44:19;11.40;99.90
22633;DHT22;11483;55.828;37.488;2022-10-16T15:46:46;11.30;99.90
22633;DHT22;11483;55.828;37.488;2022-10-16T15:49:13;11.20;99.90
22633;DHT22;11483;55.828;37.488;2022-10-16T15:51:41;11.20;99.90
22633;DHT22;11483;55.828;37.488;2022-10-16T15:54:07;11.20;99.90
22633;DHT22;11483;55.828;37.488;2022-10-16T15:56:33;11.20;99.90
22633;DHT22;11483;55.828;37.488;2022-10-16T15:59:00;11.10;99.90
22633;DHT22;11483;55.828;37.488;2022-10-16T16:01:27;11.10;99.90
22633;DHT22;11483;55.828;37.488;2022-10-16T16:03:55;11.10;99.90
22633;DHT22;11483;55.828;37.488;2022-10-16T16:06:22;11.10;99.90
22633;DHT22;11483;55.828;37.488;2022-10-16T16:08:50;11.00;99.90
22633;DHT22;11483;55.828;37.488;2022-10-16T16:11:17;10.90;99.90
22633;DHT22;11483;55.828;37.488;2022-10-16T16:13:43;10.90;99.90
22633;DHT22;11483;55.828;37.488;2022-10-16T16:16:11;10.90;99.90
22633;DHT22;11483;55.828;37.488;2022-10-16T16:18:40;11.00;99.90
22633;DHT22;11483;55.828;37.488;2022-10-16T16:21:06;10.90;99.90
22633;DHT22;11483;55.828;37.488;2022-10-16T16:23:33;10.80;99.90
22633;DHT22;11483;55.828;37.488;2022-10-16T16:28:33;10.90;99.90
22633;DHT22;11483;55.828;37.488;2022-10-16T16:30:59;10.80;99.90
22633;DHT22;11483;55.828;37.488;2022-10-16T16:33:25;10.80;99.90
22633;DHT22;11483;55.828;37.488;2022-10-16T16:35:50;10.70;99.90
22633;DHT22;11483;55.828;37.488;2022-10-16T16:38:21;10.60;99.90
22633;DHT22;11483;55.828;37.488;2022-10-16T16:40:47;10.60;99.90
22633;DHT22;11483;55.828;37.488;2022-10-16T16:43:13;10.60;99.90
22633;DHT22;11483;55.828;37.488;2022-10-16T16:45:39;10.70;99.90
22633;DHT22;11483;55.828;37.488;2022-10-16T16:48:04;10.60;99.90
22633;DHT22;11483;55.828;37.488;2022-10-16T16:50:36;10.70;99.90
22633;DHT22;11483;55.828;37.488;2022-10-16T16:53:03;10.60;99.90
22633;DHT22;11483;55.828;37.488;2022-10-16T16:55:29;10.60;99.90
22633;DHT22;11483;55.828;37.488;2022-10-16T16:57:55;10.60;99.90
22633;DHT22;11483;55.828;37.488;2022-10-16T17:00:22;10.50;99.90
22633;DHT22;11483;55.828;37.488;2022-10-16T17:02:49;10.50;99.90
22633;DHT22;11483;55.828;37.488;2022-10-16T17:05:16;10.50;99.90
22633;DHT22;11483;55.828;37.488;2022-10-16T17:07:41;10.40;99.90
22633;DHT22;11483;55.828;37.488;2022-10-16T17:10:08;10.30;99.90
22633;DHT22;11483;55.828;37.488;2022-10-16T17:12:34;10.40;99.90
22633;DHT22;11483;55.828;37.488;2022-10-16T17:15:00;10.40;99.90
22633;DHT22;11483;55.828;37.488;2022-10-16T17:17:26;10.50;99.90
22633;DHT22;11483;55.828;37.488;2022-10-16T17:19:52;10.40;99.90
22633;DHT22;11483;55.828;37.488;2022-10-16T17:22:19;10.40;99.90
22633;DHT22;11483;55.828;37.488;2022-10-16T17:24:48;10.30;99.90
22633;DHT22;11483;55.828;37.488;2022-10-16T17:27:15;10.30;99.90
22633;DHT22;11483;55.828;37.488;2022-10-16T17:29:41;10.10;99.90
22633;DHT22;11483;55.828;37.488;2022-10-16T17:32:07;10.20;99.90